CSUN New Campus Station -PST Time - Most Recent Data on bottom of page




           Date/Time      Avg      Avg      Max     Wind      Avg      Max      Min      Avg      Avg    Total      Avg     Batt
                         Wind     Wind     Wind      Dir     Temp     Temp     Temp       RH      Bar     Rain    Solar     Volt
                      Spd MPH      Dir  Spd MPH   at Max    Deg_F    Deg_F    Deg_F        % Press_mb   Inches     W/m2      Min
--------------------------------------------------------------------------------------------------------------------------------
    05/27/2016 00:00      1.8       37      4.0       31     57.6     57.9     57.4       71     1014     0.00        0     13.4
    05/27/2016 00:15      1.9       48      4.1       34     57.5     57.7     57.3       71     1014     0.00        0     13.4
    05/27/2016 00:30      1.0       57      2.5       59     57.5     57.7     57.2       72     1014     0.00        0     13.4
    05/27/2016 00:45      1.6       41      3.6       40     57.4     57.6     57.1       72     1014     0.00        0     13.4
    05/27/2016 01:00      0.0       45      0.7       42     56.7     57.3     56.0       74     1014     0.00        0     13.4
    05/27/2016 01:15      0.0        0      0.0       71     55.8     56.3     55.3       76     1013     0.00        0     13.5
    05/27/2016 01:30      0.0      120      0.2      120     55.1     55.4     54.8       78     1013     0.00        0     13.5
    05/27/2016 01:45      0.0        0      0.0      114     55.1     55.3     54.9       78     1013     0.00        0     13.5
    05/27/2016 02:00      0.0        0      0.0       86     55.1     55.4     54.9       78     1013     0.00        0     13.5
    05/27/2016 02:15      0.0        0      0.0       19     55.0     55.3     54.6       78     1013     0.00        0     13.5
    05/27/2016 02:30      0.3       43      1.5       43     54.7     55.1     54.5       78     1013     0.00        0     13.5
    05/27/2016 02:45      0.1       22      1.3       18     54.9     55.1     54.7       77     1013     0.00        0     13.5
    05/27/2016 03:00      0.0        0      0.0       17     54.6     55.0     53.9       78     1013     0.00        0     13.5
    05/27/2016 03:15      0.0      284      0.8      327     54.0     54.2     53.8       78     1013     0.00        0     13.5
    05/27/2016 03:30      0.0      284      0.4      284     53.7     54.1     53.4       79     1013     0.00        0     13.5
    05/27/2016 03:45      0.0        0      0.0      296     53.5     53.8     53.3       79     1013     0.00        0     13.5
    05/27/2016 04:00      0.0        0      0.0      338     53.3     53.6     53.0       80     1013     0.00        0     13.5
    05/27/2016 04:15      0.2       77      1.0       58     53.4     53.6     53.2       80     1013     0.00        0     13.5
    05/27/2016 04:30      0.1       52      1.1       30     53.4     53.5     53.2       80     1013     0.00        0     13.5
    05/27/2016 04:45      0.0       45      0.3       45     53.2     53.5     53.0       80     1013     0.00        2     13.5
    05/27/2016 05:00      0.0      331      0.9      325     53.2     53.4     52.9       80     1013     0.00        7     13.5
    05/27/2016 05:15      0.4       59      2.7       32     53.4     53.9     53.1       80     1013     0.00       18     13.5
    05/27/2016 05:30      1.5       36      3.1       56     54.2     54.8     53.7       77     1013     0.00       28     13.5
    05/27/2016 05:45      2.1       38      5.4       60     55.1     55.6     54.6       76     1013     0.00       42     13.5
    05/27/2016 06:00      2.6       75      5.6      121     56.0     56.8     55.3       77     1013     0.00      118     13.5
    05/27/2016 06:15      3.0       83      6.8       64     56.4     56.8     56.2       80     1013     0.00      116     13.4
    05/27/2016 06:30      2.0       91      4.7       66     56.8     57.6     56.3       78     1013     0.00      156     13.4
    05/27/2016 06:45      1.1      157      4.0      152     57.7     58.0     57.4       77     1013     0.00      184     13.4
    05/27/2016 07:00      1.5      180      3.9      214     57.8     58.0     57.5       77     1013     0.00      286     13.4
    05/27/2016 07:15      1.8      187      4.8      167     58.3     59.2     57.9       75     1013     0.00      287     13.3
    05/27/2016 07:30      2.2      205      5.4      243     59.5     60.4     58.9       70     1013     0.00      457     13.3
    05/27/2016 07:45      1.9      245      5.4      250     60.6     61.3     59.9       69     1013     0.00      482     13.3
    05/27/2016 08:00      1.0      298      3.0      293     61.2     63.1     60.4       65     1013     0.00      530     13.3
    05/27/2016 08:15      1.5      216      3.7      201     62.5     63.3     61.9       66     1013     0.00      572     13.3
    05/27/2016 08:30      1.6      226      3.6      228     62.8     63.3     62.4       65     1013     0.00      622     13.3
    05/27/2016 08:45      1.3      223      4.8      184     64.0     65.5     62.7       60     1013     0.00      668     13.2
    05/27/2016 09:00      2.3      141      6.1      153     65.7     66.4     65.1       58     1013     0.00      712     13.2
    05/27/2016 09:15      1.6      158      5.1      162     66.0     66.9     65.3       56     1012     0.00      744     13.2
    05/27/2016 09:30      1.8      165      6.2      169     66.4     67.2     65.8       54     1012     0.00      786     13.2
    05/27/2016 09:45      2.7      105      6.6       85     67.8     68.6     67.0       52     1012     0.00      816     13.2
    05/27/2016 10:00      1.8       82      5.8      151     69.2     70.1     67.8       49     1012     0.00      845     13.2
    05/27/2016 10:15      2.2      167      6.9      149     70.0     72.1     68.5       49     1012     0.00      872     13.2
    05/27/2016 10:30      1.9      107      5.0      185     71.4     73.1     70.3       44     1012     0.00      895     13.1
    05/27/2016 10:45      3.5      178      8.3      165     71.9     73.1     71.0       48     1012     0.00      916     13.1
    05/27/2016 11:00      2.1       81      5.5       97     72.8     73.8     71.6       43     1011     0.00      931     13.1
    05/27/2016 11:15      3.1      129      7.8      185     73.5     74.4     72.8       43     1011     0.00      943     13.1
    05/27/2016 11:30      3.0      124      7.1       91     74.1     74.7     73.4       41     1011     0.00      949     13.1
    05/27/2016 11:45      3.2      107      7.4       95     75.8     76.6     74.6       37     1011     0.00      956     13.1
    05/27/2016 12:00      2.5      137      7.2      135     75.4     76.5     74.6       38     1011     0.00      959     13.1
    05/27/2016 12:15      3.6      128      7.8       92     76.9     77.9     76.2       35     1011     0.00      958     13.1
    05/27/2016 12:30      2.9      109      7.5       81     78.2     79.1     77.5       36     1010     0.00      954     13.1
    05/27/2016 12:45      3.2       73      7.7       98     78.2     79.1     77.5       35     1010     0.00      945     13.1
    05/27/2016 13:00      3.5       99      8.9       72     79.2     79.9     77.7       35     1010     0.00      935     13.1
    05/27/2016 13:15      4.1       85      9.3       66     78.8     80.2     77.7       37     1010     0.00      920     13.1
    05/27/2016 13:30      3.3      123      8.8       87     78.7     79.4     78.1       36     1010     0.00      901     13.1
    05/27/2016 13:45      3.8      111      8.6       92     79.6     80.8     78.5       36     1009     0.00      877     13.0
    05/27/2016 14:00      4.1      141      9.2      147     80.0     80.8     79.5       35     1009     0.00      849     13.0
    05/27/2016 14:15      4.2      115      9.6       85     80.3     81.3     79.7       35     1009     0.00      816     13.0
    05/27/2016 14:30      3.7      134      9.4      128     80.6     81.3     79.7       34     1009     0.00      781     13.0
    05/27/2016 14:45      4.9      120      9.8      150     81.0     81.7     80.0       34     1009     0.00      720     13.0
    05/27/2016 15:00      4.6      131      9.7      140     80.5     81.1     79.8       36     1009     0.00      709     13.0
    05/27/2016 15:15      4.7      129     13.3      162     79.8     80.6     79.0       37     1009     0.00      668     13.0
    05/27/2016 15:30      4.3      120      9.4       58     78.7     79.3     78.0       38     1009     0.00      621     13.0
    05/27/2016 15:45      4.8      129      8.4      152     78.5     78.9     78.0       38     1008     0.00      569     13.0
    05/27/2016 16:00      4.9      116     10.0       89     78.2     78.9     77.2       39     1009     0.00      529     13.0
    05/27/2016 16:15      4.6      101      8.6       89     77.8     78.4     77.4       40     1009     0.00      487     13.1
    05/27/2016 16:30      3.3      136      9.8      100     77.6     78.2     77.2       39     1009     0.00      436     13.1
    05/27/2016 16:45      2.2      146      5.4       93     77.3     78.2     76.8       34     1009     0.00      385     13.1
    05/27/2016 17:00      2.3      248      6.7      238     77.5     78.0     77.2       34     1009     0.00      334     13.1
    05/27/2016 17:15      2.9      255      7.7      247     77.2     78.0     76.8       34     1009     0.00      283     13.1
    05/27/2016 17:30      2.4      235      6.4      250     76.5     77.2     76.0       33     1009     0.00      185     13.1
    05/27/2016 17:45      2.1      203      5.2      188     75.6     76.1     75.0       43     1009     0.00       45     13.1
    05/27/2016 18:00      3.2       90      6.4      116     73.9     75.3     72.8       47     1009     0.00       37     13.1
    05/27/2016 18:15      4.5      101      9.3       83     72.1     72.9     70.9       50     1009     0.00       31     13.2
    05/27/2016 18:30      4.6       83      8.5       87     70.4     71.0     69.7       53     1009     0.00       24     13.2
    05/27/2016 18:45      2.4      106      6.8       79     69.1     69.9     68.1       56     1009     0.00       15     13.2
    05/27/2016 19:00      2.9       86      7.0       69     67.7     68.3     67.2       58     1010     0.00        7     13.2
    05/27/2016 19:15      3.6       78      9.1       83     66.5     67.5     65.8       61     1010     0.00        2     13.3
    05/27/2016 19:30      4.0       64      8.6       44     65.1     65.9     64.3       64     1010     0.00        0     13.3
    05/27/2016 19:45      4.9       73      9.9       86     64.0     64.5     63.4       66     1010     0.00        0     13.3
    05/27/2016 20:00      3.3       74      7.5       38     63.1     63.7     62.7       68     1010     0.00        0     13.3
    05/27/2016 20:15      3.5       88      7.4       93     62.5     62.9     62.1       70     1010     0.00        0     13.3
    05/27/2016 20:30      2.1       94      5.5      107     61.9     62.2     61.5       72     1010     0.00        0     13.3
    05/27/2016 20:45      2.8       86      6.4       93     61.2     61.5     60.7       74     1011     0.00        0     13.3
    05/27/2016 21:00      3.2       92      7.8      101     60.6     60.9     60.2       74     1011     0.00        0     13.3
    05/27/2016 21:15      3.5       91      6.6       67     59.8     60.4     59.4       76     1011     0.00        0     13.4
    05/27/2016 21:30      3.9       71      6.8       72     59.2     59.6     58.8       78     1011     0.00        0     13.4
    05/27/2016 21:45      3.4       67      6.8       68     58.8     59.1     58.5       78     1011     0.00        0     13.4
    05/27/2016 22:00      2.8       73      5.7       74     58.5     58.8     58.3       78     1011     0.00        0     13.4
    05/27/2016 22:15      2.2       66      4.4       58     58.4     58.6     58.2       79     1011     0.00        0     13.4
    05/27/2016 22:30      1.9       60      4.6       60     58.4     58.6     58.3       78     1011     0.00        0     13.4
    05/27/2016 22:45      1.7       82      3.4       74     58.5     58.7     58.3       78     1010     0.00        0     13.4
    05/27/2016 23:00      1.3       71      2.8       82     58.4     58.7     58.1       79     1010     0.00        0     13.4
    05/27/2016 23:15      1.6       84      3.2       54     58.3     58.5     58.1       79     1010     0.00        0     13.4
    05/27/2016 23:30      1.0      139      2.6      140     58.0     58.5     57.5       80     1010     0.00        0     13.4
    05/27/2016 23:45      0.7       76      1.8       50     57.8     58.1     57.5       80     1011     0.00        0     13.4
    05/28/2016 00:00      0.7       71      2.5       83     58.0     58.2     57.8       80     1010     0.00        0     13.4
    05/28/2016 00:15      0.5       79      2.1       68     58.0     58.2     57.8       79     1010     0.00        0     13.4
    05/28/2016 00:30      1.2       77      3.2       93     58.1     58.3     57.9       79     1010     0.00        0     13.4
    05/28/2016 00:45      1.4       90      3.3       77     58.3     58.5     58.0       78     1010     0.00        0     13.4
    05/28/2016 01:00      1.1      100      3.0       90     58.4     58.6     58.2       78     1010     0.00        0     13.4
    05/28/2016 01:15      1.5       97      6.1       72     58.4     58.6     58.1       80     1010     0.00        0     13.4
    05/28/2016 01:30      0.4       64      2.9      152     58.1     58.4     57.9       80     1010     0.00        0     13.4
    05/28/2016 01:45      1.0       63      3.5       92     58.1     58.3     57.9       80     1009     0.00        0     13.4
    05/28/2016 02:00      0.2      304      2.5      347     57.9     58.1     57.7       81     1009     0.00        0     13.4
    05/28/2016 02:15      0.9      108      2.7       91     57.8     58.0     57.7       81     1009     0.00        0     13.4
    05/28/2016 02:30      0.4      172      1.5      169     57.8     58.0     57.5       82     1009     0.00        0     13.4
    05/28/2016 02:45      1.1      127      3.2      149     57.8     58.0     57.5       82     1009     0.00        0     13.4
    05/28/2016 03:00      1.8      148      4.1      171     57.7     58.0     57.5       82     1009     0.00        0     13.4
    05/28/2016 03:15      1.7      134      4.7      145     57.8     58.1     57.5       81     1009     0.00        0     13.4
    05/28/2016 03:30      0.4      188      2.7      179     57.5     57.8     57.2       82     1009     0.00        0     13.4
    05/28/2016 03:45      0.4      207      1.9      208     57.4     57.6     57.2       83     1009     0.00        0     13.4
    05/28/2016 04:00      1.0      143      3.4       84     57.5     57.7     57.2       83     1009     0.00        0     13.4
    05/28/2016 04:15      2.0       59      5.1       67     57.8     58.0     57.5       82     1009     0.00        0     13.4
    05/28/2016 04:30      0.4      101      3.4        7     57.6     57.8     57.3       83     1009     0.00        0     13.4
    05/28/2016 04:45      1.3      142      3.1      137     57.7     58.0     57.4       82     1010     0.00        0     13.4
    05/28/2016 05:00      1.7      121      4.4       67     57.7     57.9     57.5       82     1010     0.00        2     13.4
    05/28/2016 05:15      1.4      103      3.7      106     57.8     58.0     57.6       81     1010     0.00        6     13.4
    05/28/2016 05:30      1.0      107      3.1      135     58.0     58.3     57.9       81     1010     0.00        9     13.4
    05/28/2016 05:45      1.0      115      3.0       85     58.3     58.5     58.1       80     1010     0.00       13     13.4
    05/28/2016 06:00      0.9       39      3.2       85     58.4     58.6     58.2       80     1010     0.00       25     13.4
    05/28/2016 06:15      3.0       38      7.0       41     58.5     58.6     58.2       80     1010     0.00       38     13.4
    05/28/2016 06:30      1.5       42      3.8       34     58.6     58.9     58.3       79     1010     0.00       51     13.4
    05/28/2016 06:45      2.0       84      4.5       99     58.9     59.1     58.7       78     1011     0.00       67     13.4
    05/28/2016 07:00      1.4       85      4.6       46     59.4     59.8     58.9       76     1011     0.00       86     13.4
    05/28/2016 07:15      2.4       55      6.2       65     59.6     59.8     59.4       76     1011     0.00       97     13.4
    05/28/2016 07:30      1.9       48      4.3       39     59.6     59.9     59.3       76     1011     0.00       99     13.4
    05/28/2016 07:45      2.5       57      6.0       53     60.0     60.2     59.7       75     1011     0.00      139     13.3
    05/28/2016 08:00      1.0       18      3.6       80     60.3     60.7     59.9       73     1011     0.00      160     13.3
    05/28/2016 08:15      1.4       86      5.1      102     61.4     62.1     60.6       70     1011     0.00      194     13.3
    05/28/2016 08:30      2.4       86      5.7       96     61.7     62.4     61.3       71     1011     0.00      283     13.3
    05/28/2016 08:45      2.1      109      5.8      129     62.7     63.2     62.2       67     1011     0.00      352     13.3
    05/28/2016 09:00      2.4       98      5.4      137     63.4     63.9     62.9       66     1011     0.00      575     13.3
    05/28/2016 09:15      2.1      134      6.6      175     64.5     65.5     63.1       63     1011     0.00      555     13.2
    05/28/2016 09:30      2.5      124      6.0       89     65.3     66.3     64.8       62     1011     0.00      615     13.2
    05/28/2016 09:45      2.7      115      7.1       77     66.4     67.1     65.7       62     1011     0.00      710     13.2
    05/28/2016 10:00      3.6      109      7.5       95     67.2     67.7     66.2       58     1011     0.00      846     13.2
    05/28/2016 10:15      2.6      127      6.4      145     67.3     68.1     66.6       57     1011     0.00      862     13.2
    05/28/2016 10:30      3.0       96      7.1      139     68.0     68.8     67.3       56     1011     0.00      896     13.2
    05/28/2016 10:45      3.3       96      8.4      112     68.3     68.8     67.5       55     1011     0.00      903     13.2
    05/28/2016 11:00      2.6      125      7.7      137     69.1     70.4     68.1       52     1011     0.00      901     13.2
    05/28/2016 11:15      4.2      119      9.3      148     70.6     71.1     69.9       52     1011     0.00      913     13.1
    05/28/2016 11:30      3.0      107      8.2      151     70.7     72.4     69.8       49     1011     0.00      938     13.1
    05/28/2016 11:45      3.6       90      7.7      145     71.5     72.3     70.9       50     1011     0.00      932     13.1
    05/28/2016 12:00      4.1       85      8.9       53     71.8     72.5     71.1       49     1011     0.00      932     13.1
    05/28/2016 12:15      2.5       99      7.6       86     73.0     73.9     71.8       45     1011     0.00      949     13.1
    05/28/2016 12:30      2.1      180      6.1       90     73.7     75.0     72.9       42     1010     0.00      950     13.1
    05/28/2016 12:45      2.8      108      8.1       77     74.5     74.9     73.6       43     1010     0.00      930     13.1
    05/28/2016 13:00      3.5      136      9.9      103     75.5     76.3     74.8       41     1010     0.00      918     13.1
    05/28/2016 13:15      4.3      137      8.5       90     75.9     76.5     75.1       41     1010     0.00      908     13.1
    05/28/2016 13:30      2.7       62      8.1      352     75.9     76.7     75.2       41     1010     0.00      885     13.1
    05/28/2016 13:45      3.0      121      7.9      139     77.7     78.8     76.5       40     1010     0.00      862     13.1
    05/28/2016 14:00      4.4      145      9.1      185     77.3     78.4     76.3       38     1010     0.00      805     13.1
    05/28/2016 14:15      5.6      136     11.3      166     77.2     77.7     76.7       41     1009     0.00      741     13.1
    05/28/2016 14:30      5.1      119     12.4      170     77.1     77.7     76.5       41     1009     0.00      783     13.1
    05/28/2016 14:45      5.1      116     11.8      132     76.8     77.7     75.7       42     1009     0.00      712     13.1
    05/28/2016 15:00      5.1      122     11.1      137     76.7     77.4     76.0       43     1009     0.00      690     13.1
    05/28/2016 15:15      5.3      118     12.3       99     76.6     77.0     76.1       41     1009     0.00      643     13.1
    05/28/2016 15:30      5.1      109     10.7      154     76.2     77.1     75.7       42     1009     0.00      595     13.1
    05/28/2016 15:45      4.7      108      9.7       84     75.7     76.4     75.2       44     1009     0.00      541     13.1
    05/28/2016 16:00      4.5      107     10.4       87     75.2     75.7     74.6       44     1009     0.00      511     13.1
    05/28/2016 16:15      4.2      104      9.8       75     74.9     75.7     74.1       44     1009     0.00      465     13.1
    05/28/2016 16:30      3.8      101     10.6       73     74.5     75.2     73.7       45     1009     0.00      420     13.1
    05/28/2016 16:45      4.0      113      8.6       75     73.8     74.2     73.3       46     1009     0.00      391     13.1
    05/28/2016 17:00      5.0      120     10.0      126     72.5     73.5     71.5       50     1010     0.00      268     13.1
    05/28/2016 17:15      5.2       97     10.9       89     70.6     71.6     69.8       53     1010     0.00      218     13.1
    05/28/2016 17:30      5.2       94     11.2      101     69.0     70.1     68.1       56     1010     0.00       98     13.1
    05/28/2016 17:45      5.4       87     12.8      100     67.7     68.3     67.1       58     1010     0.00       64     13.2
    05/28/2016 18:00      4.5       85      9.4       49     67.0     67.5     66.1       60     1010     0.00       52     13.2
    05/28/2016 18:15      4.4       76      9.5       58     65.7     66.2     65.2       62     1011     0.00       43     13.2
    05/28/2016 18:30      4.9       73      9.9       63     64.7     65.5     64.1       65     1011     0.00       30     13.3
    05/28/2016 18:45      4.2       89     10.4       81     64.1     64.6     63.2       66     1011     0.00       15     13.3
    05/28/2016 19:00      4.6       90      8.9       90     62.8     63.5     62.5       68     1011     0.00        6     13.3
    05/28/2016 19:15      3.3       91      9.5       71     62.0     62.5     61.5       70     1012     0.00        1     13.3
    05/28/2016 19:30      3.0       99      8.0       68     60.9     61.6     60.4       73     1012     0.00        0     13.3
    05/28/2016 19:45      3.6       90      7.9       71     60.1     60.5     59.6       75     1012     0.00        0     13.3
    05/28/2016 20:00      4.4       94      9.5       77     59.2     59.7     58.8       77     1012     0.00        0     13.3
    05/28/2016 20:15      3.7       96      7.2       67     58.8     59.1     58.5       78     1013     0.00        0     13.4
    05/28/2016 20:30      3.6      100      8.7       92     58.5     58.8     58.3       78     1013     0.00        0     13.4
    05/28/2016 20:45      2.7      101      7.1      107     58.4     58.6     58.2       79     1013     0.00        0     13.4
    05/28/2016 21:00      3.4      100      7.1       80     58.3     58.5     58.0       79     1013     0.00        0     13.4
    05/28/2016 21:15      2.9       99      7.1       96     57.9     58.3     57.6       80     1013     0.00        0     13.4
    05/28/2016 21:30      2.4       98      6.1       92     57.7     58.0     57.4       80     1013     0.00        0     13.4
    05/28/2016 21:45      2.4      107      5.9      101     57.9     58.1     57.7       79     1013     0.00        0     13.4
    05/28/2016 22:00      2.6      127      6.0      143     57.7     58.0     57.4       80     1013     0.00        0     13.4
    05/28/2016 22:15      2.3      112      6.2      146     57.6     58.0     57.4       80     1013     0.00        0     13.4
    05/28/2016 22:30      2.4      110      6.0       89     57.8     58.1     57.6       79     1013     0.00        0     13.4
    05/28/2016 22:45      2.1      107      4.8      139     57.9     58.1     57.5       80     1013     0.00        0     13.4
    05/28/2016 23:00      1.8      120      4.5      105     57.9     58.1     57.6       80     1014     0.00        0     13.4
    05/28/2016 23:15      2.3      121      5.2      144     57.8     58.0     57.6       80     1014     0.00        0     13.4
    05/28/2016 23:30      2.3       94      5.3       85     57.7     58.0     57.4       81     1013     0.00        0     13.4
    05/28/2016 23:45      1.9      119      4.2      141     57.8     58.0     57.5       80     1013     0.00        0     13.4
    05/29/2016 00:00      2.4      146      4.6      171     57.8     57.9     57.5       81     1013     0.00        0     13.4
    05/29/2016 00:15      1.8      152      4.5      168     57.7     57.9     57.5       81     1013     0.00        0     13.4
    05/29/2016 00:30      1.3      118      2.9      131     57.6     57.9     57.4       81     1013     0.00        0     13.4
    05/29/2016 00:45      1.4      151      4.0      138     57.5     57.7     57.2       81     1013     0.00        0     13.4
    05/29/2016 01:00      1.5      160      4.3      156     57.5     57.7     57.4       81     1013     0.00        0     13.4
    05/29/2016 01:15      2.3      159      4.1      167     57.3     57.7     57.0       83     1013     0.00        0     13.4
    05/29/2016 01:30      0.8      139      2.2      162     57.2     57.5     57.0       84     1013     0.00        0     13.4
    05/29/2016 01:45      1.2      147      3.0      161     57.1     57.4     56.9       85     1013     0.00        0     13.4
    05/29/2016 02:00      0.9       97      2.5       87     57.0     57.3     56.9       86     1013     0.00        0     13.4
    05/29/2016 02:15      0.4      123      1.7       75     57.0     57.3     56.8       86     1013     0.00        0     13.4
    05/29/2016 02:30      1.3      152      2.7      158     57.0     57.2     56.8       86     1013     0.00        0     13.4
    05/29/2016 02:45      0.9      136      3.6      165     57.0     57.2     56.8       86     1013     0.00        0     13.4
    05/29/2016 03:00      1.7      158      3.9      177     57.0     57.2     56.8       86     1013     0.00        0     13.4
    05/29/2016 03:15      1.8      161      3.9      169     57.0     57.2     56.8       85     1013     0.00        0     13.4
    05/29/2016 03:30      1.8      146      3.7      164     57.1     57.3     56.9       85     1013     0.00        0     13.4
    05/29/2016 03:45      2.0      169      4.3      147     57.1     57.4     57.0       84     1013     0.00        0     13.4
    05/29/2016 04:00      1.7      161      3.6      175     57.2     57.4     57.0       84     1013     0.00        0     13.4
    05/29/2016 04:15      1.7      156      3.4      162     57.2     57.4     57.0       84     1013     0.00        0     13.4
    05/29/2016 04:30      1.5      143      2.9      140     57.3     57.5     57.0       83     1013     0.00        0     13.4
    05/29/2016 04:45      1.7      158      3.0      151     57.4     57.6     57.2       83     1014     0.00        0     13.4
    05/29/2016 05:00      0.9      126      2.2      138     57.4     57.7     57.2       83     1014     0.00        2     13.4
    05/29/2016 05:15      0.8       88      2.7      100     57.5     57.7     57.2       84     1014     0.00        4     13.4
    05/29/2016 05:30      0.8       82      2.0       69     57.5     57.8     57.2       85     1014     0.00        9     13.4
    05/29/2016 05:45      0.8       95      2.1       93     57.5     57.7     57.2       85     1014     0.00       16     13.4
    05/29/2016 06:00      0.4      112      2.3       95     57.5     57.7     57.2       85     1014     0.00       23     13.4
    05/29/2016 06:15      1.1      113      2.6      100     57.6     57.9     57.4       85     1014     0.00       29     13.4
    05/29/2016 06:30      0.8      141      2.3      134     57.8     58.1     57.6       84     1014     0.00       43     13.4
    05/29/2016 06:45      1.2      130      3.0       97     58.0     58.3     57.8       83     1014     0.00       53     13.4
    05/29/2016 07:00      1.2      139      2.4      151     58.4     58.7     58.1       82     1015     0.00       73     13.4
    05/29/2016 07:15      0.9      166      3.5      153     58.7     59.0     58.4       80     1015     0.00       90     13.4
    05/29/2016 07:30      1.6      177      3.2      159     58.9     59.3     58.5       78     1015     0.00      113     13.4
    05/29/2016 07:45      1.3      152      3.6      147     59.8     60.5     59.1       75     1015     0.00      154     13.3
    05/29/2016 08:00      2.1      173      3.6      184     60.2     60.5     59.8       74     1015     0.00      156     13.3
    05/29/2016 08:15      1.8      155      4.3      173     60.4     60.8     60.1       73     1015     0.00      165     13.3
    05/29/2016 08:30      1.6      145      3.9      164     61.1     61.5     60.6       70     1015     0.00      160     13.3
    05/29/2016 08:45      1.5      129      4.0      118     61.4     62.0     61.0       68     1015     0.00      198     13.3
    05/29/2016 09:00      1.9      121      4.4      146     61.8     62.1     61.5       68     1015     0.00      195     13.3
    05/29/2016 09:15      2.3      128      6.6      151     62.1     62.5     61.5       66     1015     0.00      211     13.3
    05/29/2016 09:30      2.2      119      5.0      108     62.4     63.3     61.9       66     1015     0.00      252     13.3
    05/29/2016 09:45      3.4      119      6.3      164     63.4     63.8     62.7       64     1015     0.00      294     13.3
    05/29/2016 10:00      3.2      154      8.3      144     63.3     63.6     62.8       64     1015     0.00      327     13.3
    05/29/2016 10:15      2.2      117      6.5      144     64.3     64.7     63.6       61     1015     0.00      375     13.3
    05/29/2016 10:30      3.9       95      8.1       85     64.0     64.5     63.7       62     1015     0.00      382     13.3
    05/29/2016 10:45      3.3      128      7.6       85     64.7     65.1     64.3       61     1015     0.00      508     13.2
    05/29/2016 11:00      3.1       85      7.5       56     65.3     66.2     64.3       59     1015     0.00      460     13.2
    05/29/2016 11:15      3.1       91      6.2       74     65.3     65.7     64.9       58     1015     0.00      498     13.2
    05/29/2016 11:30      3.8       95      8.2       93     65.6     66.1     65.2       57     1015     0.00      479     13.2
    05/29/2016 11:45      3.2       57      8.1       35     66.4     67.8     65.3       56     1015     0.00      850     13.2
    05/29/2016 12:00      4.2       73      9.7       77     68.0     68.8     66.9       54     1015     0.00      958     13.2
    05/29/2016 12:15      2.9      110      7.8       90     68.3     69.5     66.8       52     1014     0.00      953     13.2
    05/29/2016 12:30      4.2       92      8.9       77     69.2     70.3     68.7       49     1014     0.00      943     13.2
    05/29/2016 12:45      3.1      129      8.2       46     69.8     70.6     68.5       49     1014     0.00      941     13.1
    05/29/2016 13:00      2.6       96      8.0      106     71.0     71.8     70.4       48     1014     0.00      938     13.1
    05/29/2016 13:15      3.0       95      8.9       96     70.9     71.7     70.4       49     1014     0.00      887     13.1
    05/29/2016 13:30      4.4      137      8.8       69     72.2     73.1     71.1       45     1014     0.00      835     13.1
    05/29/2016 13:45      3.0      104      9.1      153     72.1     72.8     71.5       45     1014     0.00      853     13.1
    05/29/2016 14:00      3.2       96      9.7      174     72.6     73.2     72.1       43     1013     0.00      822     13.1
    05/29/2016 14:15      3.8      100      9.3      119     72.9     73.3     72.0       45     1013     0.00      788     13.1
    05/29/2016 14:30      3.1      104      9.1       54     73.9     75.0     72.7       43     1013     0.00      735     13.1
    05/29/2016 14:45      4.6      111     11.1      105     74.4     75.1     73.9       41     1013     0.00      707     13.1
    05/29/2016 15:00      4.5      133      7.8      170     73.9     74.8     73.2       42     1013     0.00      685     13.1
    05/29/2016 15:15      5.5      144     10.9      160     73.3     73.9     72.7       43     1013     0.00      645     13.1
    05/29/2016 15:30      4.6      140     10.1      161     73.4     74.2     72.7       42     1013     0.00      604     13.1
    05/29/2016 15:45      5.7      132     11.8      150     72.9     74.0     72.0       45     1013     0.00      563     13.1
    05/29/2016 16:00      4.8      133     11.0      164     72.5     73.2     71.8       44     1013     0.00      519     13.1
    05/29/2016 16:15      3.8      131      8.2      150     72.7     73.2     72.3       44     1013     0.00      475     13.1
    05/29/2016 16:30      4.9      131     11.8      161     72.2     73.0     71.7       44     1013     0.00      427     13.1
    05/29/2016 16:45      4.7      138     10.2      155     71.5     72.0     70.9       45     1013     0.00      378     13.1
    05/29/2016 17:00      4.5      122      9.0      223     71.5     72.1     70.8       45     1013     0.00      333     13.1
    05/29/2016 17:15      3.4      111      7.3      124     71.2     71.6     70.7       46     1013     0.00      279     13.1
    05/29/2016 17:30      4.4      114      8.6      155     70.2     70.9     69.6       48     1013     0.00      206     13.1
    05/29/2016 17:45      3.8      118      8.8       97     69.0     69.8     68.4       50     1013     0.00       56     13.2
    05/29/2016 18:00      3.4      109      8.3       85     68.3     68.7     68.0       50     1013     0.00       46     13.2
    05/29/2016 18:15      3.3      109      9.0      100     68.1     68.4     67.8       51     1013     0.00       38     13.2
    05/29/2016 18:30      2.7      115      7.1      109     67.2     67.9     66.7       52     1013     0.00       28     13.2
    05/29/2016 18:45      4.2      174      7.8      149     65.9     67.0     65.0       55     1014     0.00       18     13.3
    05/29/2016 19:00      2.2      135      6.5      106     65.0     65.2     64.8       55     1014     0.00        8     13.3
    05/29/2016 19:15      1.8      188      6.3      246     64.6     65.3     64.1       57     1014     0.00        2     13.3
    05/29/2016 19:30      0.6      134      2.7      158     64.0     64.3     63.6       57     1014     0.00        0     13.3
    05/29/2016 19:45      0.0      185      2.3      194     63.5     63.8     63.1       58     1014     0.00        0     13.3
    05/29/2016 20:00      0.6      173      3.4      201     62.9     63.3     62.4       63     1014     0.00        0     13.3
    05/29/2016 20:15      0.9      266      4.0      242     62.3     62.7     61.9       64     1014     0.00        0     13.3
    05/29/2016 20:30      1.9      272      5.1      236     61.8     62.1     61.5       65     1014     0.00        0     13.3
    05/29/2016 20:45      1.2      289      4.9      267     61.3     61.6     61.1       66     1015     0.00        0     13.3
    05/29/2016 21:00      0.2      289      1.8      285     61.1     61.4     60.7       66     1015     0.00        0     13.4
    05/29/2016 21:15      0.7       80      2.7       58     60.8     61.0     60.5       63     1015     0.00        0     13.4
    05/29/2016 21:30      0.4       69      2.1       56     60.9     61.1     60.7       63     1015     0.00        0     13.4
    05/29/2016 21:45      1.3       76      2.8       45     60.9     61.1     60.7       63     1015     0.00        0     13.4
    05/29/2016 22:00      1.2       69      4.2       77     60.8     61.0     60.5       64     1015     0.00        0     13.4
    05/29/2016 22:15      1.5       61      3.4       84     60.5     60.8     60.2       65     1015     0.00        0     13.4
    05/29/2016 22:30      2.1       52      4.3       36     60.2     60.4     60.0       65     1015     0.00        0     13.4
    05/29/2016 22:45      1.9       43      3.7       32     60.0     60.2     59.7       66     1015     0.00        0     13.4
    05/29/2016 23:00      0.8       37      3.3       37     59.7     59.9     59.5       66     1015     0.00        0     13.4
    05/29/2016 23:15      1.2       65      2.8       63     59.4     59.7     59.3       67     1015     0.00        0     13.4
    05/29/2016 23:30      0.8       76      2.7       63     59.3     59.6     59.1       67     1015     0.00        0     13.4
    05/29/2016 23:45      0.6       65      2.0       62     59.1     59.4     58.9       68     1015     0.00        0     13.4
    05/30/2016 00:00      0.5       79      2.2       68     59.0     59.4     58.8       68     1014     0.00        0     13.4
    05/30/2016 00:15      0.2       84      1.7       83     58.8     59.1     58.6       69     1014     0.00        0     13.4
    05/30/2016 00:30      0.1       81      1.6       72     58.5     59.0     57.9       70     1014     0.00        0     13.4
    05/30/2016 00:45      0.0        0      0.0       58     57.6     58.2     57.1       72     1014     0.00        0     13.4
    05/30/2016 01:00      0.0        0      0.0       55     57.2     57.4     57.0       73     1014     0.00        0     13.4
    05/30/2016 01:15      1.1      145      2.5      162     57.1     57.4     56.9       74     1014     0.00        0     13.4
    05/30/2016 01:30      0.4      148      1.7      168     57.2     57.5     57.0       74     1014     0.00        0     13.4
    05/30/2016 01:45      0.1      152      1.0      152     56.9     57.3     56.5       75     1014     0.00        0     13.4
    05/30/2016 02:00      0.0        0      0.0      141     56.5     56.9     56.2       77     1014     0.00        0     13.4
    05/30/2016 02:15      0.0        0      0.0      145     56.2     56.4     55.9       78     1014     0.00        0     13.5
    05/30/2016 02:30      0.0        0      0.0       55     56.0     56.3     55.7       78     1014     0.00        0     13.5
    05/30/2016 02:45      0.4       55      2.0       50     55.9     56.2     55.5       78     1014     0.00        0     13.5
    05/30/2016 03:00      0.7       53      2.6       55     56.0     56.3     55.9       77     1014     0.00        0     13.5
    05/30/2016 03:15      0.7       63      2.7       81     56.0     56.2     55.8       76     1014     0.00        0     13.5
    05/30/2016 03:30      0.6       54      1.9       58     55.9     56.1     55.6       77     1014     0.00        0     13.5
    05/30/2016 03:45      0.5       78      2.1       77     55.8     56.0     55.5       77     1014     0.00        0     13.5
    05/30/2016 04:00      0.5       62      2.3       55     55.4     55.6     55.2       77     1014     0.00        0     13.5
    05/30/2016 04:15      0.8       63      2.1       84     55.4     55.6     55.2       78     1014     0.00        0     13.5
    05/30/2016 04:30      1.5       36      3.3       26     55.2     55.5     54.9       79     1014     0.00        0     13.5
    05/30/2016 04:45      1.6       39      3.5       34     55.0     55.2     54.7       81     1015     0.00        2     13.5
    05/30/2016 05:00      2.1       44      3.6       34     54.8     55.0     54.6       83     1015     0.00        7     13.5
    05/30/2016 05:15      1.8       39      3.2       45     54.8     55.0     54.6       83     1015     0.00       17     13.5
    05/30/2016 05:30      0.9       27      3.0       25     54.9     55.1     54.6       83     1015     0.00       30     13.5
    05/30/2016 05:45      1.1       38      2.6       51     55.2     55.5     54.9       83     1015     0.00       43     13.5
    05/30/2016 06:00      1.3       73      3.1       57     56.0     56.9     55.2       81     1015     0.00      129     13.5
    05/30/2016 06:15      0.9      135      2.3      142     57.1     57.8     56.5       78     1015     0.00      166     13.4
    05/30/2016 06:30      0.5       80      2.6       89     57.6     58.2     57.2       76     1015     0.00      203     13.4
    05/30/2016 06:45      0.6      169      2.1      161     58.2     58.5     57.8       76     1015     0.00      177     13.4
    05/30/2016 07:00      1.0      164      3.5       78     58.2     58.6     57.9       74     1015     0.00      171     13.4
    05/30/2016 07:15      1.2       97      3.1       85     58.8     59.4     58.3       72     1015     0.00      209     13.3
    05/30/2016 07:30      0.7      120      2.5      134     59.9     60.6     59.1       69     1015     0.00      279     13.3
    05/30/2016 07:45      1.1      200      4.0      157     60.3     60.7     60.0       70     1015     0.00      244     13.3
    05/30/2016 08:00      1.2      188      2.9      189     60.9     61.8     60.1       67     1015     0.00      338     13.3
    05/30/2016 08:15      1.0      224      3.8      247     60.9     61.2     60.7       68     1015     0.00      178     13.3
    05/30/2016 08:30      1.3      182      4.2      183     61.1     61.5     60.7       66     1015     0.00      184     13.3